Estación Meteorológica Peña el Pijo (Robertgarden) [ 12/11/18 09:27:23 CET ]

Fecha Hora Presion(HPa) Temp (°C) Humedad % Rocio (°C) Viento ( m/s) Direccion Lluvia 1Hora(mm) Lluvia 24H(mm) LLuvia Total(mm)
2018-Apr-28 01:01:35 1005.500 9.8 75 5.5         203.05
2018-Apr-28 02:01:41 1005.300 8.8 78 5.1         203.05
2018-Apr-28 03:01:40 1004.800 8.0 79 4.6         203.05
2018-Apr-28 04:04:11 1004.100 7.0 81 4.0         203.05
2018-Apr-28 05:01:40 1003.900 7.0 82 4.1         203.05
2018-Apr-28 06:01:29 1003.600 7.2 82 4.3         203.05
2018-Apr-28 07:01:34 1003.600 6.8 82 3.9         203.05
2018-Apr-28 08:01:49 1003.500 6.3 84 3.8         203.05
2018-Apr-28 09:01:40 1003.500 10.9 82 7.9         203.05
2018-Apr-28 10:01:38 1003.100 17.3 58 8.9         203.05
2018-Apr-28 11:01:57 1002.700 21.4 33 4.4 2.7 NNW     203.05
2018-Apr-28 12:01:33 1002.700 23.8 29 4.6         203.05
2018-Apr-28 13:01:45 1002.300 24.1 24 2.1         203.05
2018-Apr-28 14:01:43 1001.900 23.8 21 0.1         203.05
2018-Apr-28 15:02:09 1001.700 24.4 19 -0.9 2.4 NW     203.05
2018-Apr-28 16:01:40 1000.800 24.4 20 0.0 0.4 W     203.05
2018-Apr-28 17:01:54 1000.100 24.2 23 1.6 1.5 WNW     203.05
2018-Apr-28 18:01:58 999.500 23.8 25 2.4         203.05
2018-Apr-28 19:01:56 999.300 20.6 28 1.3 1.4 W     203.05
2018-Apr-28 20:01:52 999.300 18.4 37 3.4         203.05
2018-Apr-28 21:01:53 999.300 15.9 42 2.9         203.05
2018-Apr-28 22:01:42 999.900 13.3 52 3.6         203.05
2018-Apr-28 23:01:37 1000.400 11.3 58 3.3         203.05

Temperatura Máxima:24°    Temperatura Mínima:
Presión Máxima:1005.500 Hpa    Presión Mínima:999.300 Hpa


Volver